Time;durP1;ratioP1;P1;durP2;ratioP2;P2;SDS_P1;SDS_P2;PMS_P1;PMS_P2;Temp;Humidity;BMP_temperature;BMP_pressure;BME280_temperature;BME280_humidity;BME280_pressure;Samples;Min_cycle;Max_cycle;Signal;HPM_P1;HPM_P2
2023/08/09 00:00:15;;;;;;;4.68;1.98;;;14.70;95.50;;;;;;7576361;19;20022;-74
2023/08/09 00:02:48;;;;;;;4.45;2.22;;;14.60;95.40;;;;;;7580910;19;20606;-74
2023/08/09 00:05:20;;;;;;;2.78;1.85;;;14.60;95.60;;;;;;7576008;19;22769;-74
2023/08/09 00:07:53;;;;;;;3.20;2.00;;;14.60;96.10;;;;;;7573236;19;20047;-74
2023/08/09 00:10:26;;;;;;;4.45;2.58;;;14.50;96.50;;;;;;7574166;19;20316;-74
2023/08/09 00:12:58;;;;;;;5.03;1.90;;;14.50;96.50;;;;;;7567517;19;20768;-74
2023/08/09 00:15:30;;;;;;;3.63;2.05;;;14.40;96.60;;;;;;7584467;19;20026;-73
2023/08/09 00:18:03;;;;;;;2.67;1.77;;;14.40;96.80;;;;;;7579337;19;21016;-74
2023/08/09 00:20:36;;;;;;;2.63;1.85;;;14.50;96.80;;;;;;7578857;19;20126;-75
2023/08/09 00:23:08;;;;;;;3.22;2.15;;;14.50;96.70;;;;;;7578991;19;20565;-74
2023/08/09 00:25:41;;;;;;;8.63;2.10;;;14.50;96.90;;;;;;7578347;19;20022;-74
2023/08/09 00:28:13;;;;;;;12.53;2.30;;;14.50;97.10;;;;;;7581257;19;20023;-73
2023/08/09 00:30:46;;;;;;;3.75;1.80;;;14.40;97.30;;;;;;7583109;19;20022;-74
2023/08/09 00:33:21;;;;;;;2.70;1.98;;;14.40;97.30;;;;;;7587138;19;21013;-75
2023/08/09 00:35:54;;;;;;;5.32;2.08;;;14.40;97.50;;;;;;7584819;19;20953;-73
2023/08/09 00:38:27;;;;;;;4.53;1.95;;;14.40;97.60;;;;;;7580764;19;20597;-75
2023/08/09 00:40:59;;;;;;;5.47;2.45;;;14.40;97.80;;;;;;7577938;19;20029;-74
2023/08/09 00:43:32;;;;;;;5.57;2.30;;;14.30;97.80;;;;;;7591796;19;20022;-74
2023/08/09 00:46:04;;;;;;;4.45;2.10;;;14.30;98.00;;;;;;7591403;19;20055;-75
2023/08/09 00:48:37;;;;;;;4.95;1.80;;;14.30;98.30;;;;;;7583316;19;21446;-74
2023/08/09 00:51:10;;;;;;;2.83;2.25;;;14.30;98.50;;;;;;7574252;19;20018;-74
2023/08/09 00:53:42;;;;;;;3.63;2.25;;;14.30;98.50;;;;;;7573297;19;20027;-74
2023/08/09 00:56:14;;;;;;;3.60;2.28;;;14.30;98.60;;;;;;7579507;19;20010;-75
2023/08/09 00:58:47;;;;;;;4.88;2.00;;;14.30;98.70;;;;;;7585214;19;20022;-74
2023/08/09 01:01:19;;;;;;;6.00;2.22;;;14.30;98.80;;;;;;7585665;19;20037;-74
2023/08/09 01:03:52;;;;;;;4.65;2.17;;;14.40;98.80;;;;;;7583461;19;20018;-73
2023/08/09 01:06:37;;;;;;;4.35;2.17;;;14.40;99.00;;;;;;7569833;19;20017;-73
2023/08/09 01:09:34;;;;;;;5.70;2.40;;;14.50;98.90;;;;;;7581079;19;20029;-72
2023/08/09 01:12:11;;;;;;;2.83;1.75;;;14.50;99.10;;;;;;7585637;19;20019;-73
2023/08/09 01:14:46;;;;;;;3.45;2.20;;;14.60;98.90;;;;;;7580870;19;20019;-73
2023/08/09 01:17:21;;;;;;;3.05;2.05;;;14.60;98.90;;;;;;7573731;19;20014;-73
2023/08/09 01:19:56;;;;;;;4.00;1.92;;;14.70;98.90;;;;;;7584997;19;20025;-73
2023/08/09 01:22:31;;;;;;;6.40;2.83;;;14.70;99.00;;;;;;7582015;19;20018;-74
2023/08/09 01:25:06;;;;;;;7.50;2.10;;;14.70;98.90;;;;;;7585675;19;20022;-73
2023/08/09 01:27:39;;;;;;;2.78;1.85;;;14.80;98.90;;;;;;7585478;19;20332;-73
2023/08/09 01:30:13;;;;;;;2.67;1.77;;;14.80;99.20;;;;;;7584436;19;20011;-73
2023/08/09 01:32:46;;;;;;;4.43;2.20;;;14.80;98.90;;;;;;7582502;19;20015;-73
2023/08/09 01:35:18;;;;;;;4.53;2.47;;;14.90;98.90;;;;;;7586836;19;20018;-74
2023/08/09 01:37:55;;;;;;;4.03;1.90;;;14.80;99.10;;;;;;7579254;19;20130;-74
2023/08/09 01:40:28;;;;;;;2.63;1.80;;;14.90;99.20;;;;;;7573956;19;20082;-73
2023/08/09 01:43:00;;;;;;;3.55;2.03;;;14.90;99.20;;;;;;7581694;19;20877;-73
2023/08/09 01:45:33;;;;;;;3.83;2.13;;;14.90;99.10;;;;;;7580798;19;20617;-73
2023/08/09 01:48:05;;;;;;;2.78;1.88;;;14.90;99.40;;;;;;7583243;19;20113;-73
2023/08/09 01:50:43;;;;;;;3.67;2.08;;;14.90;99.30;;;;;;7579299;19;20061;-73
2023/08/09 01:53:15;;;;;;;3.65;2.22;;;15.00;99.30;;;;;;7578068;19;20051;-73
2023/08/09 01:55:47;;;;;;;3.78;1.83;;;15.00;99.30;;;;;;7575737;19;20018;-73
2023/08/09 01:58:20;;;;;;;3.53;2.30;;;15.00;99.50;;;;;;7580683;19;20635;-74
2023/08/09 02:00:52;;;;;;;2.33;1.65;;;15.00;99.50;;;;;;7584903;19;20601;-73
2023/08/09 02:03:25;;;;;;;3.08;2.22;;;15.10;99.50;;;;;;7566374;19;20018;-72
2023/08/09 02:05:59;;;;;;;3.67;2.22;;;15.10;99.40;;;;;;7576643;19;20022;-73
2023/08/09 02:08:31;;;;;;;4.57;1.92;;;15.10;99.60;;;;;;7565628;19;20059;-73
2023/08/09 02:11:04;;;;;;;3.20;2.05;;;15.10;99.60;;;;;;7581568;19;20085;-74
2023/08/09 02:13:39;;;;;;;3.03;2.22;;;15.10;99.60;;;;;;7573062;19;20033;-73
2023/08/09 02:16:12;;;;;;;5.93;2.38;;;15.10;99.70;;;;;;7579396;19;20022;-73
2023/08/09 02:18:44;;;;;;;2.70;1.75;;;15.10;99.80;;;;;;7571490;19;20909;-72
2023/08/09 02:21:18;;;;;;;2.72;1.90;;;15.10;99.70;;;;;;7580176;19;20014;-73
2023/08/09 02:23:51;;;;;;;4.43;2.08;;;15.10;99.90;;;;;;7586609;19;21418;-72
2023/08/09 02:26:23;;;;;;;4.07;2.63;;;15.10;99.80;;;;;;7580843;19;20047;-73
2023/08/09 02:28:55;;;;;;;2.15;1.80;;;15.20;99.90;;;;;;7584947;19;20015;-73
2023/08/09 02:31:27;;;;;;;2.80;1.90;;;15.10;99.90;;;;;;7579375;19;20811;-74
2023/08/09 02:34:00;;;;;;;4.53;2.08;;;15.20;99.90;;;;;;7573276;19;20767;-73
2023/08/09 02:36:32;;;;;;;2.67;1.80;;;15.20;99.80;;;;;;7582328;19;20018;-73
2023/08/09 02:39:07;;;;;;;4.03;1.90;;;15.20;99.70;;;;;;7587380;19;20662;-73
2023/08/09 02:41:42;;;;;;;2.78;1.88;;;15.20;99.70;;;;;;7579674;19;20027;-75
2023/08/09 02:44:14;;;;;;;5.35;2.10;;;15.20;99.80;;;;;;7573881;19;20486;-75
2023/08/09 02:46:47;;;;;;;2.20;1.77;;;15.20;99.80;;;;;;7587439;19;20023;-75
2023/08/09 02:49:19;;;;;;;3.47;1.75;;;15.20;99.80;;;;;;7572996;19;20010;-75
2023/08/09 02:51:51;;;;;;;3.72;2.30;;;15.20;99.90;;;;;;7571220;19;20063;-73
2023/08/09 02:54:24;;;;;;;4.80;1.80;;;15.30;99.90;;;;;;7576873;19;20018;-72
2023/08/09 02:56:56;;;;;;;2.97;1.95;;;15.20;99.90;;;;;;7582739;19;20014;-73
2023/08/09 02:59:28;;;;;;;6.50;2.22;;;15.20;99.90;;;;;;7582588;19;20022;-72
2023/08/09 03:02:00;;;;;;;3.45;2.00;;;15.30;99.90;;;;;;7571028;19;20443;-73
2023/08/09 03:04:33;;;;;;;5.82;1.85;;;15.30;99.90;;;;;;7588406;19;20667;-72
2023/08/09 03:07:06;;;;;;;6.33;2.20;;;15.30;99.90;;;;;;7584266;19;20018;-72
2023/08/09 03:09:40;;;;;;;6.35;2.20;;;15.30;99.90;;;;;;7572311;19;21222;-73
2023/08/09 03:12:13;;;;;;;2.50;2.10;;;15.30;99.90;;;;;;7583144;19;20014;-72
2023/08/09 03:14:45;;;;;;;2.42;2.13;;;15.20;99.90;;;;;;7571848;19;20025;-74
2023/08/09 03:17:18;;;;;;;2.53;2.00;;;15.20;99.90;;;;;;7579811;19;20015;-73
2023/08/09 03:19:50;;;;;;;6.70;2.38;;;15.10;99.90;;;;;;7567970;19;20835;-74
2023/08/09 03:22:23;;;;;;;4.45;2.03;;;15.10;99.90;;;;;;7585147;19;20382;-72
2023/08/09 03:24:56;;;;;;;3.45;2.08;;;15.10;99.90;;;;;;7570525;19;20349;-74
2023/08/09 03:27:28;;;;;;;3.42;1.77;;;15.00;99.90;;;;;;7580751;19;20024;-75
2023/08/09 03:30:03;;;;;;;5.03;2.37;;;15.00;99.90;;;;;;7573051;19;20086;-73
2023/08/09 03:32:36;;;;;;;4.72;2.70;;;14.90;99.90;;;;;;7566918;19;20624;-75
2023/08/09 03:35:10;;;;;;;4.03;2.10;;;14.90;99.90;;;;;;7571843;19;20022;-75
2023/08/09 03:37:43;;;;;;;5.70;2.40;;;14.80;99.90;;;;;;7571736;19;20019;-74
2023/08/09 03:40:16;;;;;;;5.03;2.47;;;14.80;99.90;;;;;;7570270;19;20819;-73
2023/08/09 03:42:49;;;;;;;6.35;2.70;;;14.70;99.90;;;;;;7573396;19;20018;-72
2023/08/09 03:45:22;;;;;;;5.25;2.63;;;14.70;99.90;;;;;;7579501;19;20034;-75
2023/08/09 03:47:56;;;;;;;3.22;2.38;;;14.70;99.90;;;;;;7562855;19;20018;-72
2023/08/09 03:50:30;;;;;;;4.20;2.60;;;14.80;99.90;;;;;;7585862;19;20022;-75
2023/08/09 03:53:02;;;;;;;4.97;2.75;;;14.70;99.90;;;;;;7578464;19;20030;-72
2023/08/09 03:55:35;;;;;;;3.35;2.25;;;14.60;99.90;;;;;;7570833;19;20022;-73
2023/08/09 03:58:07;;;;;;;4.85;2.40;;;14.60;99.90;;;;;;7577459;19;20015;-76
2023/08/09 04:00:39;;;;;;;3.15;2.45;;;14.60;99.90;;;;;;7581940;19;20362;-73
2023/08/09 04:03:12;;;;;;;4.75;2.35;;;14.60;99.90;;;;;;7570116;19;20047;-73
2023/08/09 04:05:44;;;;;;;3.92;2.58;;;14.60;99.90;;;;;;7594675;19;20018;-75
2023/08/09 04:08:17;;;;;;;3.27;2.37;;;14.60;99.90;;;;;;7591367;19;20018;-74
2023/08/09 04:10:49;;;;;;;3.92;2.33;;;14.60;99.90;;;;;;7582039;19;20050;-75
2023/08/09 04:13:21;;;;;;;5.60;2.40;;;14.60;99.90;;;;;;7584814;19;20027;-74
2023/08/09 04:15:54;;;;;;;4.78;2.20;;;14.60;99.90;;;;;;7583795;19;20021;-73
2023/08/09 04:18:26;;;;;;;2.58;2.28;;;14.60;99.90;;;;;;7584862;19;20638;-74
2023/08/09 04:20:58;;;;;;;4.15;2.47;;;14.60;99.90;;;;;;7587056;19;20019;-73
2023/08/09 04:23:31;;;;;;;5.65;2.47;;;14.60;99.90;;;;;;7593948;19;20021;-74
2023/08/09 04:26:03;;;;;;;3.95;2.17;;;14.60;99.90;;;;;;7587136;19;21026;-73
2023/08/09 04:28:35;;;;;;;3.65;2.38;;;14.60;99.90;;;;;;7589676;19;20020;-73
2023/08/09 04:31:09;;;;;;;4.00;2.72;;;14.60;99.90;;;;;;7585055;19;20014;-73
2023/08/09 04:33:49;;;;;;;3.30;2.15;;;14.60;99.90;;;;;;7587716;19;20468;-74
2023/08/09 04:36:21;;;;;;;5.90;2.30;;;14.70;99.90;;;;;;7587903;19;20038;-73
2023/08/09 04:38:54;;;;;;;5.13;2.15;;;14.70;99.90;;;;;;7580969;19;20017;-76
2023/08/09 04:41:26;;;;;;;3.33;2.13;;;14.60;99.90;;;;;;7591514;19;20018;-72
2023/08/09 04:43:59;;;;;;;3.95;2.78;;;14.60;99.90;;;;;;7581093;19;20070;-72
2023/08/09 04:46:35;;;;;;;4.47;2.78;;;14.60;99.90;;;;;;7584383;19;20014;-76
2023/08/09 04:49:07;;;;;;;3.38;2.47;;;14.60;99.90;;;;;;7578923;19;20394;-75
2023/08/09 04:51:40;;;;;;;4.85;2.70;;;14.60;99.90;;;;;;7583766;19;20657;-72
2023/08/09 04:54:13;;;;;;;3.92;2.70;;;14.60;99.90;;;;;;7590441;19;20029;-72
2023/08/09 04:56:45;;;;;;;4.20;2.40;;;14.60;99.90;;;;;;7583817;19;20022;-72
2023/08/09 04:59:17;;;;;;;4.65;2.85;;;14.50;99.90;;;;;;7577344;19;20022;-74
2023/08/09 05:01:49;;;;;;;3.35;2.50;;;14.50;99.90;;;;;;7577004;19;20007;-72
2023/08/09 05:04:21;;;;;;;3.88;2.80;;;14.50;99.90;;;;;;7581919;19;20070;-74
2023/08/09 05:06:54;;;;;;;5.55;2.97;;;14.40;99.90;;;;;;7584168;19;20094;-72
2023/08/09 05:09:26;;;;;;;5.97;2.95;;;14.40;99.90;;;;;;7578459;19;20026;-74
2023/08/09 05:11:59;;;;;;;4.60;2.80;;;14.40;99.90;;;;;;7574781;19;20054;-73
2023/08/09 05:14:31;;;;;;;4.38;2.92;;;14.30;99.90;;;;;;7581569;19;20271;-72
2023/08/09 05:17:04;;;;;;;7.05;2.80;;;14.30;99.90;;;;;;7574785;19;20034;-72
2023/08/09 05:19:36;;;;;;;7.15;2.85;;;14.30;99.90;;;;;;7580093;19;20010;-71
2023/08/09 05:22:08;;;;;;;4.53;3.13;;;14.20;99.90;;;;;;7574838;19;20037;-72
2023/08/09 05:24:41;;;;;;;4.28;2.60;;;14.30;99.90;;;;;;7573965;19;20018;-72
2023/08/09 05:27:13;;;;;;;5.25;2.63;;;14.30;99.90;;;;;;7580462;19;20018;-73
2023/08/09 05:29:45;;;;;;;4.40;2.70;;;14.30;99.90;;;;;;7564091;19;20033;-71
2023/08/09 05:32:17;;;;;;;6.85;2.95;;;14.20;99.90;;;;;;7582376;19;20081;-73
2023/08/09 05:34:50;;;;;;;4.60;2.72;;;14.30;99.90;;;;;;7579120;19;20039;-73
2023/08/09 05:37:22;;;;;;;5.70;2.83;;;14.30;99.90;;;;;;7585958;19;20015;-73
2023/08/09 05:39:55;;;;;;;4.35;2.80;;;14.30;99.90;;;;;;7584231;19;20055;-72
2023/08/09 05:42:27;;;;;;;4.40;2.70;;;14.30;99.90;;;;;;7572779;19;20117;-73
2023/08/09 05:44:59;;;;;;;4.32;2.95;;;14.30;99.90;;;;;;7578162;19;20062;-73
2023/08/09 05:47:31;;;;;;;5.38;3.17;;;14.20;99.90;;;;;;7574860;19;20721;-72
2023/08/09 05:50:05;;;;;;;4.60;3.20;;;14.20;99.90;;;;;;7586936;19;20014;-73
2023/08/09 05:52:37;;;;;;;;;;;14.30;99.90;;;;;;7587142;19;20048;-74
2023/08/09 05:55:10;;;;;;;6.90;3.35;;;14.20;99.90;;;;;;7571430;19;21053;-72
2023/08/09 05:57:42;;;;;;;6.30;2.78;;;14.20;99.90;;;;;;7584356;19;20019;-74
2023/08/09 06:00:18;;;;;;;4.85;3.08;;;14.20;99.90;;;;;;7575771;19;20511;-73
2023/08/09 06:02:50;;;;;;;7.93;2.95;;;14.10;99.90;;;;;;7591451;19;20018;-73
2023/08/09 06:05:25;;;;;;;7.85;3.70;;;14.10;99.90;;;;;;7582278;19;20018;-74
2023/08/09 06:07:58;;;;;;;4.82;3.55;;;14.10;99.90;;;;;;7586234;19;20014;-73
2023/08/09 06:10:30;;;;;;;6.50;3.15;;;14.10;99.90;;;;;;7577772;19;20560;-72
2023/08/09 06:13:03;;;;;;;4.40;3.28;;;14.00;99.90;;;;;;7577255;19;20018;-76
2023/08/09 06:15:35;;;;;;;8.35;3.40;;;14.00;99.90;;;;;;7566670;19;20018;-74
2023/08/09 06:18:08;;;;;;;7.22;3.42;;;14.00;99.90;;;;;;7566878;19;20018;-75
2023/08/09 06:20:40;;;;;;;5.18;3.42;;;14.10;99.90;;;;;;7584308;19;20141;-73
2023/08/09 06:23:12;;;;;;;7.68;3.30;;;14.10;99.90;;;;;;7586857;19;20022;-73
2023/08/09 06:25:46;;;;;;;7.70;3.50;;;14.20;99.90;;;;;;7577964;19;20021;-73
2023/08/09 06:28:19;;;;;;;9.63;3.90;;;14.20;99.90;;;;;;7582116;19;20021;-73
2023/08/09 06:30:52;;;;;;;4.95;3.47;;;14.20;99.90;;;;;;7576706;19;20018;-72
2023/08/09 06:33:24;;;;;;;6.57;4.05;;;14.20;99.90;;;;;;7578442;19;20031;-73
2023/08/09 06:35:56;;;;;;;5.75;3.55;;;14.20;99.90;;;;;;7582719;19;21464;-74
2023/08/09 06:38:30;;;;;;;5.88;3.20;;;14.10;99.90;;;;;;7584612;19;20025;-73
2023/08/09 06:41:02;;;;;;;10.02;3.35;;;14.20;99.90;;;;;;7579634;19;20030;-73
2023/08/09 06:43:35;;;;;;;5.22;3.50;;;14.20;99.90;;;;;;7556993;19;20102;-73
2023/08/09 06:46:07;;;;;;;8.38;3.67;;;14.20;99.90;;;;;;7567726;19;20509;-74
2023/08/09 06:48:39;;;;;;;5.57;3.28;;;14.20;99.90;;;;;;7578761;19;20018;-73
2023/08/09 06:51:12;;;;;;;6.63;3.60;;;14.20;99.90;;;;;;7572994;19;21140;-74
2023/08/09 06:53:44;;;;;;;7.00;3.95;;;14.20;99.90;;;;;;7580614;19;20053;-73
2023/08/09 06:56:16;;;;;;;4.75;3.03;;;14.30;99.90;;;;;;7576357;19;20070;-73
2023/08/09 06:58:49;;;;;;;6.43;3.58;;;14.30;99.90;;;;;;7578130;19;20049;-75
2023/08/09 07:01:21;;;;;;;7.32;3.38;;;14.40;99.90;;;;;;7563848;19;20033;-73
2023/08/09 07:03:54;;;;;;;10.43;4.32;;;14.40;99.90;;;;;;7576231;19;20492;-72
2023/08/09 07:06:26;;;;;;;8.13;3.45;;;14.40;99.90;;;;;;7577116;19;20024;-72
2023/08/09 07:08:58;;;;;;;5.82;3.78;;;14.40;99.90;;;;;;7564329;19;20037;-73
2023/08/09 07:11:30;;;;;;;6.50;3.58;;;14.40;99.90;;;;;;7583974;19;20026;-73
2023/08/09 07:14:03;;;;;;;7.65;3.95;;;14.40;99.90;;;;;;7577067;19;20022;-73
2023/08/09 07:16:35;;;;;;;8.98;3.90;;;14.30;99.90;;;;;;7576219;19;20029;-73
2023/08/09 07:19:08;;;;;;;9.07;4.47;;;14.30;99.90;;;;;;7569738;19;20183;-73
2023/08/09 07:21:40;;;;;;;5.35;3.95;;;14.40;99.90;;;;;;7567969;19;20819;-73
2023/08/09 07:24:14;;;;;;;4.55;3.38;;;14.30;99.90;;;;;;7583336;19;20014;-73
2023/08/09 07:26:46;;;;;;;12.40;3.70;;;14.30;99.90;;;;;;7563890;19;20015;-75
2023/08/09 07:29:18;;;;;;;6.15;3.58;;;14.30;99.90;;;;;;7578922;19;20018;-73
2023/08/09 07:31:50;;;;;;;9.43;4.50;;;14.30;99.90;;;;;;7574010;19;20949;-75
2023/08/09 07:34:23;;;;;;;6.47;3.97;;;14.30;99.90;;;;;;7592515;19;20019;-76
2023/08/09 07:36:55;;;;;;;8.52;3.50;;;14.10;99.90;;;;;;7580845;19;20010;-72
2023/08/09 07:39:27;;;;;;;6.82;4.13;;;14.20;99.90;;;;;;7571891;19;20025;-75
2023/08/09 07:41:59;;;;;;;5.20;3.75;;;14.20;99.90;;;;;;7576793;19;20992;-72
2023/08/09 07:44:32;;;;;;;5.93;3.93;;;14.10;99.90;;;;;;7582935;19;20850;-71
2023/08/09 07:47:05;;;;;;;5.05;3.88;;;14.20;99.90;;;;;;7582265;19;20034;-76
2023/08/09 07:49:37;;;;;;;8.23;4.30;;;14.20;99.90;;;;;;7582972;19;20033;-75
2023/08/09 07:52:10;;;;;;;7.45;3.55;;;14.20;99.90;;;;;;7573760;19;21039;-75
2023/08/09 07:54:43;;;;;;;6.90;4.13;;;14.20;99.90;;;;;;7581019;19;20014;-72
2023/08/09 07:57:15;;;;;;;7.00;4.57;;;14.30;99.90;;;;;;7583646;19;20051;-75
2023/08/09 07:59:47;;;;;;;5.68;4.05;;;14.40;99.90;;;;;;7574526;19;20011;-75
2023/08/09 08:02:20;;;;;;;6.38;4.25;;;14.40;99.90;;;;;;7568509;19;20029;-72
2023/08/09 08:04:52;;;;;;;6.50;4.53;;;14.30;99.90;;;;;;7583045;19;20050;-75
2023/08/09 08:07:24;;;;;;;6.88;4.32;;;14.40;99.90;;;;;;7578252;19;20018;-73
2023/08/09 08:09:56;;;;;;;6.10;4.15;;;14.40;99.90;;;;;;7571472;19;21392;-72
2023/08/09 08:12:29;;;;;;;8.13;4.18;;;14.40;99.90;;;;;;7564701;19;20940;-75
2023/08/09 08:15:03;;;;;;;8.00;4.27;;;14.50;99.90;;;;;;7582511;19;20029;-75
2023/08/09 08:17:35;;;;;;;7.65;4.30;;;14.40;99.90;;;;;;7581575;19;20442;-76
2023/08/09 08:20:15;;;;;;;10.07;3.83;;;14.50;99.90;;;;;;7578919;19;20014;-72
2023/08/09 08:22:49;;;;;;;5.53;3.95;;;14.40;99.90;;;;;;7578441;19;20029;-73
2023/08/09 08:25:22;;;;;;;6.38;4.30;;;14.40;99.90;;;;;;7580188;19;20033;-76
2023/08/09 08:27:54;;;;;;;7.07;4.43;;;14.50;99.90;;;;;;7583552;19;20042;-74
2023/08/09 08:30:26;;;;;;;6.90;3.53;;;14.50;99.90;;;;;;7576157;19;20708;-75
2023/08/09 08:32:58;;;;;;;6.57;4.05;;;14.60;99.90;;;;;;7573785;19;20030;-75
2023/08/09 08:35:33;;;;;;;4.80;3.78;;;14.50;99.90;;;;;;7585217;19;20031;-72
2023/08/09 08:38:06;;;;;;;5.40;3.30;;;14.60;99.90;;;;;;7569775;19;20030;-73
2023/08/09 08:40:38;;;;;;;10.40;4.07;;;14.60;99.90;;;;;;7581340;19;20023;-73
2023/08/09 08:43:11;;;;;;;7.83;3.93;;;14.60;99.90;;;;;;7581103;19;20047;-76
2023/08/09 08:45:48;;;;;;;9.10;3.80;;;14.60;99.90;;;;;;7582312;19;20029;-72
2023/08/09 08:48:22;;;;;;;6.30;3.85;;;14.70;99.90;;;;;;7581101;19;20033;-72
2023/08/09 08:50:57;;;;;;;6.18;4.05;;;14.70;99.90;;;;;;7581360;19;20029;-75
2023/08/09 08:53:29;;;;;;;5.22;4.28;;;14.70;99.90;;;;;;7592868;19;21100;-75
2023/08/09 08:56:02;;;;;;;6.30;3.65;;;14.80;99.90;;;;;;7587626;19;20039;-72
2023/08/09 08:58:35;;;;;;;5.78;3.58;;;14.80;99.90;;;;;;7593038;19;20030;-72
2023/08/09 09:01:09;;;;;;;5.88;4.07;;;14.90;99.90;;;;;;7584418;19;20645;-75
2023/08/09 09:03:43;;;;;;;9.25;3.95;;;14.90;99.90;;;;;;7592227;19;20758;-75
2023/08/09 09:06:16;;;;;;;9.20;3.83;;;14.90;99.90;;;;;;7588771;19;20011;-74
2023/08/09 09:08:54;;;;;;;6.22;4.03;;;14.90;99.90;;;;;;7581531;19;20022;-74
2023/08/09 09:11:27;;;;;;;6.43;3.63;;;15.00;99.90;;;;;;7585954;19;20019;-74
2023/08/09 09:13:59;;;;;;;6.72;3.80;;;15.10;99.90;;;;;;7592569;19;20014;-75
2023/08/09 09:16:35;;;;;;;6.10;3.58;;;15.10;99.90;;;;;;7588730;19;20021;-75
2023/08/09 09:19:08;;;;;;;4.63;3.20;;;15.20;99.90;;;;;;7563696;19;20059;-74
2023/08/09 09:21:42;;;;;;;4.68;3.05;;;15.20;99.90;;;;;;7586117;19;20047;-74
2023/08/09 09:24:14;;;;;;;6.00;3.15;;;15.20;99.90;;;;;;7586194;19;20022;-73
2023/08/09 09:26:53;;;;;;;6.77;3.30;;;15.30;99.90;;;;;;7592710;19;20594;-73
2023/08/09 09:29:33;;;;;;;5.60;3.67;;;15.30;99.90;;;;;;7584675;19;20026;-72
2023/08/09 09:32:08;;;;;;;8.07;4.03;;;15.30;99.90;;;;;;7580494;19;20587;-72
2023/08/09 09:34:40;;;;;;;4.53;3.05;;;15.30;99.90;;;;;;7592650;19;20023;-72
2023/08/09 09:37:17;;;;;;;8.32;3.42;;;15.40;99.90;;;;;;7580488;19;20019;-73
2023/08/09 09:39:51;;;;;;;6.50;3.80;;;15.40;99.90;;;;;;7585422;19;20018;-71
2023/08/09 09:42:31;;;;;;;7.57;3.70;;;15.30;99.90;;;;;;7582468;19;20887;-72
2023/08/09 09:45:08;;;;;;;5.38;3.83;;;15.40;99.90;;;;;;7585522;19;20022;-73
2023/08/09 09:47:40;;;;;;;8.10;3.95;;;15.20;99.90;;;;;;7589408;19;20033;-73
2023/08/09 09:50:14;;;;;;;5.00;3.35;;;15.30;99.90;;;;;;7589293;19;20018;-72
2023/08/09 09:52:47;;;;;;;6.75;3.80;;;15.30;99.90;;;;;;7587465;19;20023;-74
2023/08/09 09:55:25;;;;;;;6.43;4.20;;;15.30;99.90;;;;;;7582963;19;21699;-74
2023/08/09 09:57:59;;;;;;;9.23;4.18;;;15.40;99.90;;;;;;7585003;19;20057;-73
2023/08/09 10:00:32;;;;;;;5.43;3.63;;;15.40;99.90;;;;;;7580062;19;20463;-72
2023/08/09 10:03:05;;;;;;;9.50;4.22;;;15.50;99.90;;;;;;7574211;19;20042;-73
2023/08/09 10:05:39;;;;;;;8.70;4.32;;;15.50;99.90;;;;;;7585084;19;20022;-73
2023/08/09 10:08:12;;;;;;;6.00;4.07;;;15.60;99.90;;;;;;7581240;19;20679;-74
2023/08/09 10:10:49;;;;;;;5.78;4.15;;;15.60;99.90;;;;;;7588459;19;21027;-73
2023/08/09 10:13:24;;;;;;;7.30;4.13;;;15.80;99.90;;;;;;7581445;19;20633;-72
2023/08/09 10:16:00;;;;;;;7.15;4.00;;;15.90;99.90;;;;;;7586933;19;20025;-72
2023/08/09 10:18:41;;;;;;;6.28;3.90;;;15.90;99.90;;;;;;7584172;19;20592;-73
2023/08/09 10:21:17;;;;;;;5.97;4.18;;;16.00;99.90;;;;;;7581692;19;20063;-73
2023/08/09 10:24:07;;;;;;;5.07;3.85;;;16.10;99.90;;;;;;7580610;19;20019;-74
2023/08/09 10:26:41;;;;;;;4.90;3.53;;;16.20;99.90;;;;;;7582337;19;20015;-72
2023/08/09 10:29:18;;;;;;;5.57;3.72;;;16.20;99.90;;;;;;7588867;19;20670;-72
2023/08/09 10:31:53;;;;;;;6.22;3.80;;;16.20;99.90;;;;;;7582828;19;20051;-72
2023/08/09 10:34:40;;;;;;;6.43;4.07;;;16.20;99.90;;;;;;7594864;19;20010;-73
2023/08/09 10:37:23;;;;;;;6.93;3.58;;;16.20;99.90;;;;;;7577101;19;20040;-74
2023/08/09 10:40:16;;;;;;;6.60;4.28;;;16.20;99.90;;;;;;7590094;19;20022;-73
2023/08/09 10:42:52;;;;;;;5.65;3.90;;;16.20;99.90;;;;;;7581687;19;20014;-73
2023/08/09 10:45:25;;;;;;;5.35;3.80;;;16.20;99.90;;;;;;7584971;19;20019;-73
2023/08/09 10:48:19;;;;;;;7.47;4.13;;;16.20;99.90;;;;;;7583956;19;20010;-73
2023/08/09 10:51:10;;;;;;;6.38;4.03;;;16.10;99.90;;;;;;7585117;19;20022;-72
2023/08/09 10:53:57;;;;;;;4.63;3.78;;;16.00;99.90;;;;;;7581767;19;20018;-73
2023/08/09 10:56:30;;;;;;;6.40;4.03;;;16.00;99.90;;;;;;7578929;19;20849;-73
2023/08/09 10:59:06;;;;;;;;;;;15.90;99.90;;;;;;7587427;19;20013;-72
2023/08/09 11:01:41;;;;;;;5.22;4.00;;;15.90;99.90;;;;;;7582840;19;19922;-73
2023/08/09 11:04:14;;;;;;;5.07;3.90;;;15.80;99.90;;;;;;7596375;19;20039;-73
2023/08/09 11:06:48;;;;;;;9.35;3.33;;;15.80;99.90;;;;;;7587390;19;20093;-72
2023/08/09 11:09:23;;;;;;;4.43;2.90;;;15.90;99.90;;;;;;7585900;19;20022;-73
2023/08/09 11:11:55;;;;;;;6.00;3.55;;;16.00;99.90;;;;;;7580766;19;20651;-73
2023/08/09 11:14:32;;;;;;;8.18;3.85;;;16.00;99.90;;;;;;7585394;19;20021;-73
2023/08/09 11:17:12;;;;;;;7.78;3.70;;;16.10;99.90;;;;;;7582464;19;20014;-73
2023/08/09 11:19:44;;;;;;;5.82;3.55;;;16.20;99.90;;;;;;7579331;19;20018;-73
2023/08/09 11:22:17;;;;;;;4.93;3.20;;;16.40;99.90;;;;;;7581880;19;20022;-73
2023/08/09 11:24:49;;;;;;;6.03;3.57;;;16.50;99.90;;;;;;7578956;19;20046;-73
2023/08/09 11:27:22;;;;;;;3.42;2.95;;;16.60;99.90;;;;;;7578832;19;20018;-74
2023/08/09 11:29:55;;;;;;;6.28;2.88;;;16.60;99.90;;;;;;7586550;19;20677;-72
2023/08/09 11:32:27;;;;;;;5.45;3.08;;;16.70;99.90;;;;;;7575165;19;20054;-74
2023/08/09 11:35:00;;;;;;;3.92;2.83;;;16.70;99.90;;;;;;7590895;19;21076;-74
2023/08/09 11:37:32;;;;;;;6.40;3.40;;;16.80;99.90;;;;;;7585200;19;20018;-72
2023/08/09 11:40:05;;;;;;;4.88;3.03;;;16.80;99.90;;;;;;7579409;19;20033;-73
2023/08/09 11:42:37;;;;;;;5.57;3.33;;;16.80;99.90;;;;;;7580795;19;20022;-73
2023/08/09 11:45:09;;;;;;;5.82;2.90;;;17.00;99.90;;;;;;7587080;19;20025;-73
2023/08/09 11:47:49;;;;;;;5.70;2.58;;;17.10;99.90;;;;;;7578585;19;20019;-72
2023/08/09 11:50:24;;;;;;;4.55;2.95;;;17.20;99.90;;;;;;7579340;19;20018;-73
2023/08/09 11:52:57;;;;;;;5.80;3.08;;;17.40;99.90;;;;;;7581680;19;20364;-72
2023/08/09 11:55:29;;;;;;;4.82;2.95;;;17.50;99.90;;;;;;7581471;19;20022;-73
2023/08/09 11:58:03;;;;;;;7.53;3.03;;;17.70;99.90;;;;;;7589742;19;20391;-72
2023/08/09 12:00:40;;;;;;;4.93;2.58;;;17.80;99.90;;;;;;7583334;19;20018;-73
2023/08/09 12:03:12;;;;;;;4.10;2.35;;;18.00;99.90;;;;;;7582533;19;20006;-72
2023/08/09 12:05:45;;;;;;;6.22;2.70;;;18.30;99.90;;;;;;7580716;19;20015;-71
2023/08/09 12:08:35;;;;;;;5.32;2.97;;;18.70;99.90;;;;;;7583297;19;20656;-72
2023/08/09 12:11:07;;;;;;;4.22;3.08;;;19.20;99.90;;;;;;7588012;19;20015;-71
2023/08/09 12:13:39;;;;;;;3.60;2.50;;;19.80;99.90;;;;;;7577529;19;21028;-72
2023/08/09 12:16:11;;;;;;;3.78;2.63;;;20.20;99.90;;;;;;7577685;19;22388;-72
2023/08/09 12:18:44;;;;;;;3.58;2.30;;;20.40;99.90;;;;;;7581587;19;20127;-72
2023/08/09 12:21:16;;;;;;;4.78;2.75;;;20.30;99.90;;;;;;7585579;19;20022;-72
2023/08/09 12:23:49;;;;;;;5.53;2.65;;;20.10;99.90;;;;;;7576999;19;20018;-72
2023/08/09 12:26:21;;;;;;;4.85;2.58;;;19.90;99.90;;;;;;7585096;19;20041;-71
2023/08/09 12:28:53;;;;;;;5.60;2.83;;;20.00;99.90;;;;;;7584885;19;20860;-72
2023/08/09 12:31:26;;;;;;;5.82;2.63;;;19.90;99.90;;;;;;7592154;19;20051;-73
2023/08/09 12:33:59;;;;;;;4.13;2.50;;;19.80;99.90;;;;;;7588631;19;21071;-73
2023/08/09 12:36:31;;;;;;;4.67;2.87;;;19.70;99.90;;;;;;7591656;19;20018;-73
2023/08/09 12:39:04;;;;;;;3.65;2.55;;;19.90;99.90;;;;;;7594310;19;20102;-72
2023/08/09 12:41:37;;;;;;;6.10;2.40;;;19.90;99.90;;;;;;7586593;19;20078;-73
2023/08/09 12:44:10;;;;;;;2.75;2.00;;;20.10;99.90;;;;;;7588361;19;20006;-71
2023/08/09 12:46:42;;;;;;;4.57;2.20;;;20.00;99.90;;;;;;7586255;19;21056;-73
2023/08/09 12:49:15;;;;;;;5.32;2.40;;;20.10;99.90;;;;;;7573249;19;20022;-73
2023/08/09 12:51:47;;;;;;;3.25;2.40;;;20.10;99.90;;;;;;7573072;19;20046;-72
2023/08/09 12:54:19;;;;;;;3.88;2.30;;;20.20;99.90;;;;;;7590869;19;20021;-73
2023/08/09 12:56:51;;;;;;;3.50;2.22;;;20.40;99.90;;;;;;7580117;19;20010;-72
2023/08/09 12:59:27;;;;;;;3.40;2.33;;;20.80;99.90;;;;;;7591198;19;20014;-73
2023/08/09 13:01:59;;;;;;;7.30;2.30;;;21.00;99.90;;;;;;7590654;19;20662;-72
2023/08/09 13:04:34;;;;;;;6.00;2.33;;;20.90;99.90;;;;;;7586645;19;20523;-73
2023/08/09 13:07:06;;;;;;;5.22;2.70;;;20.80;99.90;;;;;;7585071;19;20014;-72
2023/08/09 13:09:39;;;;;;;4.23;2.67;;;20.70;99.90;;;;;;7589411;19;20110;-73
2023/08/09 13:12:11;;;;;;;4.85;2.40;;;20.80;99.90;;;;;;7581868;19;20030;-72
2023/08/09 13:14:43;;;;;;;15.27;3.00;;;20.80;99.90;;;;;;7588754;19;20369;-72
2023/08/09 13:17:16;;;;;;;9.10;2.58;;;20.70;99.90;;;;;;7592074;19;20011;-72
2023/08/09 13:19:48;;;;;;;4.53;2.90;;;20.40;99.90;;;;;;7574326;19;20030;-72